Tiempo atmosférico en la estación meteorológica de Puerto De San Isidro, León (1510 m.)



Fecha
DESCASC
Temp. máxima en grados centígrados (hora)
DESCASC
Temp. mínima en grados centígrados (hora)
DESCASC
Temp. media en grados centígrados
DESCASC
Racha de viento máxima en m/sg (hora)
DESCASC
Velocidad máxima media en intervalos de 10 minutos(hora)
DESCASC
Precipitaciones diarias en mm
DESCASC
Precipitaciones de 00:00 a 06:00 en mm
DESCASC
Precipitaciones de 06:00 a 12:00 en mm
DESCASC
Precipitaciones de 12:00 a 18:00 en mm
DESCASC
Precipitaciones de 18:00 a 24:00 en mm
DESCASC
15-08-2019 18.7 (16:20) 8 (07:50) 13.4 9.44 (15:00) 7.5 (18:40) 0 0 0 0 0
14-08-2019 20.5 (17:30) 5.7 (00:00) 13.1 10.56 (18:40) 6.94 (17:50) 0 0 0 0 0
13-08-2019 16.7 (17:10) 0.8 (00:00) 8.8 8.89 (18:40) 6.94 (19:30) 0 0 0 0 0
12-08-2019 10.5 (18:00) 5.4 (00:00) 8 10.83 (04:20) 6.67 (06:20) 0 0 0 0 0
11-08-2019 13.7 (16:10) 5.9 (00:00) 9.8 12.22 (18:50) 8.33 (18:50) 0 0 0 0 0
10-08-2019 17.6 (13:50) 4.6 (00:00) 11.1 10 (17:50) 7.78 (17:40) 0 0 0 0 0
09-08-2019 18.9 (13:50) 12 (00:00) 15.4 16.67 (11:30) 6.67 (02:20) 0.4 0.2 0 0.2 0
08-08-2019 18.9 (15:40) 13.2 (00:00) 16 15.28 (18:40) 7.78 (00:50) 0.2 0 0 0.2 0
07-08-2019 20.1 (13:20) 8.2 (00:00) 14.2 11.67 (23:59) 6.39 (23:59) 7.8 0.2 4.8 2.6 0.2
06-08-2019 23.5 (14:20) 9.6 (00:00) 16.6 8.89 (21:20) 6.67 (17:20) 0 0 0 0 0
05-08-2019 21.9 (12:40) 7.8 (00:00) 14.8 9.72 (18:10) 7.5 (18:10) 0 0 0 0 0
04-08-2019 22.3 (12:30) 9.1 (00:00) 15.7 12.5 (17:30) 10.28 (17:50) 0 0 0 0 0
03-08-2019 24.6 (14:00) 8.8 (00:00) 16.7 10.28 (17:20) 7.5 (17:20) 0 0 0 0 0
02-08-2019 22.5 (12:10) 7.2 (00:00) 14.8 7.78 (15:00) 5.83 (17:00) 0 0 0 0 0
01-08-2019 17.5 (17:40) 6.3 (00:00) 11.9 8.89 (12:00) 7.5 (12:10) 0 0 0 0 0
31-07-2019 16.7 (15:30) 3.8 (00:00) 10.3 8.89 (18:50) 7.22 (18:50) 0 0 0 0 0
30-07-2019 13.8 (17:20) 5.8 (00:00) 9.8 12.22 (03:50) 8.61 (03:50) 0 0 0 0 0
29-07-2019 18 (12:30) 6.9 (00:00) 12.5 9.72 (16:20) 6.67 (14:10) 0 0 0 0 0
28-07-2019 19.8 (19:00) 2.7 (00:00) 11.2 9.72 (16:10) 5.83 (16:10) 8.2 0 0.4 7.8 0
27-07-2019 10.9 (11:40) 7.8 (00:00) 9.3 10.83 (22:10) 5.83 (16:30) 0.2 0 0 0.2 0
26-07-2019 12.7 (00:00) 8.6 (00:00) 10.7 7.5 (00:50) 5.56 (00:50) 0 0 0 0 0
25-07-2019 24.4 (15:50) 12.7 (00:00) 18.5 12.22 (07:40) 8.33 (18:20) 0 0 0 0 0
24-07-2019 25.6 (19:20) 12.3 (00:00) 19 13.89 (12:50) 7.5 (12:20) 0.4 0.2 0.2 0 0
23-07-2019 26 (17:30) 13.2 (00:00) 19.6 12.78 (21:10) 9.17 (19:30) 1.4 0 0 0 1.4
22-07-2019 29 (18:30) 10.6 (00:00) 19.8 18.61 (21:40) 8.61 (22:20) 5.6 0 0 0 5.6
21-07-2019 24.3 (14:40) 7.7 (00:00) 16 11.94 (16:30) 9.44 (16:40) 0.2 0 0.2 0 0
20-07-2019 19.8 (13:10) 10.7 (00:00) 15.2 11.11 (17:40) 9.17 (17:30) 0 0 0 0 0
19-07-2019 25.1 (16:20) 7 (00:00) 16.1 10.56 (15:00) 7.22 (17:20) 0 0 0 0 0
18-07-2019 18.9 (17:30) 4.1 (00:00) 11.5 10.28 (16:20) 7.5 (15:00) 0 0 0 0 0

Gráficas

Temp. máximas Temp. mínimas Temp. medias Precipitaciones Rachas de viento máximas Velocidades máximas media en intervalos de 10 minutos

Datos horarios

Fecha y hora oficial Temperatura (ºC) Velocidad del viento (km/h) Dirección del viento Racha (km/h) Dirección de racha Precipitación (mm) Presión (hPa) Tendencia (hPa) Humedad (%)
2019-08-16 23:00:00 13.6 11 Oeste 19 Oeste 0 854.2 0.6 90
2019-08-16 22:00:00 14.3 12 Oeste 20 Noroeste 0 853.8 0.1 88
2019-08-16 21:00:00 16.7 15 Oeste 24 Oeste 0 853.5 -0.2 78
2019-08-16 20:00:00 19.9 19 Oeste 29 Oeste 0 853.6 -0.4 62
2019-08-16 19:00:00 20.8 23 Oeste 32 Oeste 0 853.7 -0.2 59
2019-08-16 18:00:00 22.3 22 Oeste 31 Oeste 0 853.7 -0.4 55
2019-08-16 17:00:00 22.7 22 Oeste 33 Oeste 0 854 -0.4 53
2019-08-16 16:00:00 23.5 17 Oeste 28 Noroeste 0 853.9 -0.7 44
2019-08-16 15:00:00 23.2 21 Oeste 27 Oeste 0 854.1 -0.4 47
2019-08-16 14:00:00 22.3 13 Oeste 26 Noroeste 0 854.4 -0.2 47
2019-08-16 13:00:00 21.5 15 Noroeste 31 Sudeste 0 854.6 -0.2 50
2019-08-16 12:00:00 21.6 18 Sudeste 28 Este 0 854.5 -0.4 39
2019-08-16 11:00:00 20.5 13 Este 19 Este 0 854.6 -0.3 53
2019-08-16 10:00:00 18.2 9 Este 13 Este 0 854.8 0 60
2019-08-16 09:00:00 12.3 2 Nordeste 6 Oeste 0 854.9 0.1 79
2019-08-16 08:00:00 7.9 4 Oeste 7 Oeste 0 854.9 -0.2 86
2019-08-16 07:00:00 9 2 Oeste 7 Noroeste 0 854.8 -0.6 81
2019-08-16 06:00:00 8.3 3 Oeste 6 Noroeste 0 854.8 -0.9 80
2019-08-16 05:00:00 9.1 3 Oeste 8 Oeste 0 855.1 -1 80
2019-08-16 04:00:00 9.1 5 Oeste 9 Oeste 0 855.4 -0.9 77
2019-08-16 03:00:00 8.6 4 Oeste 9 Oeste 0 855.7 -0.9 69
2019-08-16 02:00:00 7.9 2 Oeste 8 Oeste 0 856.1 -0.8 69
2019-08-16 01:00:00 8.2 5 Oeste 8 Oeste 0 856.3 -0.4 68
2019-08-16 00:00:00 9.7 2 Oeste 18 Noroeste 0 856.6 0.2 82
2019-08-15 23:00:00 12.1 14 Noroeste 19 Noroeste 0 856.9 0.5 93
2019-08-15 22:00:00 12.3 12 Noroeste 16 Oeste 0 856.7 0.1 88
2019-08-15 21:00:00 15.4 14 Oeste 22 Oeste 0 856.4 -0.1 70
2019-08-15 20:00:00 16.7 18 Oeste 30 Oeste 0 856.4 -0.2 63
2019-08-15 19:00:00 17.5 22 Oeste 34 Oeste 0 856.6 -0.2 65
2019-08-15 18:00:00 18.2 24 Oeste 34 Oeste 0 856.5 -0.2 60
2019-08-15 17:00:00 18 24 Oeste 34 Oeste 0 856.6 -0.2 60
2019-08-15 16:00:00 18.5 22 Oeste 33 Oeste 0 856.8 -0.1 60
2019-08-15 15:00:00 18.3 22 Oeste 34 Oeste 0 856.7 -0.2 58
2019-08-15 14:00:00 18.4 19 Oeste 32 Oeste 0 856.8 0.1 57
2019-08-15 13:00:00 17.7 21 Oeste 30 Oeste 0 856.9 0.3 56
2019-08-15 12:00:00 16.8 18 Oeste 31 Oeste 0 856.9 0.3 45
2019-08-15 11:00:00 16.3 20 Oeste 31 Oeste 0 856.7 0.3 42
2019-08-15 10:00:00 15 19 Oeste 27 Oeste 0 856.6 0.6 30
2019-08-15 09:00:00 11.1 3 Noroeste 9 Oeste 0 856.6 0.6 56
2019-08-15 08:00:00 8.2 2 Este 5 Nordeste 0 856.4 0.4 85
2019-08-15 07:00:00 8.5 2 Sudoeste 22 Noroeste 0 856 -0.2 87
2019-08-15 06:00:00 9.8 13 Noroeste 26 Noroeste 0 856 -0.2 89
2019-08-15 05:00:00 10.2 17 Noroeste 26 Noroeste 0 856 -0.6 90
2019-08-15 04:00:00 10.9 19 Oeste 28 Oeste 0 856.2 -0.6 89
2019-08-15 03:00:00 11.6 19 Oeste 27 Oeste 0 856.2 -0.6 85
2019-08-15 02:00:00 12 8 Noroeste 25 Oeste 0 856.6 -0.4 89
2019-08-15 01:00:00 12.9 14 Oeste 24 Oeste 0 856.8 0.3 90
2019-08-15 00:00:00 13.4 14 Oeste 26 Oeste 0 856.8 0.6 92
2019-08-14 23:00:00 14 12 Oeste 22 Oeste 0 857 1.1 91
2019-08-14 22:00:00 14.2 10 Noroeste 22 Oeste 0 856.5 0.6 91
2019-08-14 21:00:00 14.8 21 Oeste 28 Oeste 0 856.2 0.1 88
2019-08-14 20:00:00 17 21 Oeste 31 Oeste 0 855.9 -0.2 75
2019-08-14 19:00:00 18.9 23 Oeste 38 Noroeste 0 855.9 -0.3 66
2019-08-14 18:00:00 19.6 25 Oeste 36 Oeste 0 856.1 -0.2 63
2019-08-14 17:00:00 20.1 23 Oeste 34 Oeste 0 856.1 -0.2 60
2019-08-14 16:00:00 20 23 Oeste 32 Oeste 0 856.2 -0.1 58
2019-08-14 15:00:00 19.1 15 Oeste 25 Oeste 0 856.3 0.2 61
2019-08-14 14:00:00 18.5 16 Oeste 30 Oeste 0 856.3 0.6 61
2019-08-14 13:00:00 17.6 19 Oeste 32 Oeste 0 856.3 0.7 64
2019-08-14 12:00:00 17.3 19 Oeste 34 Oeste 0 856.1 0.5 61
2019-08-14 11:00:00 16.9 17 Oeste 27 Oeste 0 855.7 0.5 61
2019-08-14 10:00:00 15.8 6 Norte 13 Noroeste 0 855.6 0.5 55
2019-08-14 09:00:00 10.9 2 Nordeste 8 Oeste 0 855.6 0.4 77
2019-08-14 08:00:00 6.6 4 Oeste 6 Oeste 0 855.2 0 89
2019-08-14 07:00:00 6.2 2 Oeste 7 Oeste 0 855.1 -0.5 87
2019-08-14 06:00:00 6.2 3 Oeste 8 Sur 0 855.2 -0.5 89
2019-08-14 05:00:00 6.9 0 Calma 6 Sudeste 0 855.2 -0.6 87
2019-08-14 04:00:00 6.9 0 Calma 7 Sudeste 0 855.6 -0.4 88
2019-08-14 03:00:00 7.8 2 Este 15 Sur 0 855.7 -0.4 85
2019-08-14 02:00:00 8.7 3 Oeste 22 Oeste 0 855.8 -0.3 84
2019-08-14 01:00:00 11.3 18 Oeste 24 Oeste 0 856 0.2 85
2019-08-14 00:00:00 10 12 Oeste 18 Oeste 0 856.1 0.3 88
2019-08-13 23:00:00 10.3 7 Oeste 13 Oeste 0 856.1 0.8 92
2019-08-13 22:00:00 10.2 10 Oeste 20 Oeste 0 855.8 0.8 90
2019-08-13 21:00:00 12.1 18 Oeste 29 Oeste 0 855.8 0.7 84
2019-08-13 20:00:00 14.2 22 Oeste 32 Oeste 0 855.3 -0.2 72
2019-08-13 19:00:00 15.4 22 Oeste 32 Oeste 0 855 -0.6 67
2019-08-13 18:00:00 16.1 19 Oeste 26 Oeste 0 855.1 -0.7 64
2019-08-13 17:00:00 16.4 17 Oeste 31 Noroeste 0 855.5 -0.3 59
2019-08-13 16:00:00 15.8 19 Oeste 30 Oeste 0 855.6 -0.2 57
2019-08-13 15:00:00 15.7 20 Oeste 31 Oeste 0 855.8 0.1 47
2019-08-13 14:00:00 14.9 20 Oeste 31 Oeste 0 855.8 0.2 46
2019-08-13 13:00:00 14.7 21 Oeste 32 Oeste 0 855.8 0 46
2019-08-13 12:00:00 13.8 19 Oeste 24 Oeste 0 855.7 0.1 48
2019-08-13 11:00:00 12.7 15 Oeste 20 Oeste 0 855.6 0.2 50
2019-08-13 10:00:00 11.2 7 Este 12 Este 0 855.8 0.5 70
2019-08-13 09:00:00 6.9 3 Este 7 Oeste 0 855.6 0.4 86
2019-08-13 08:00:00 1.9 5 Oeste 7 Oeste 0 855.4 0.1 92
2019-08-13 07:00:00 1.4 4 Oeste 6 Oeste 0 855.3 -0.2 91
2019-08-13 06:00:00 1.4 2 Oeste 6 Oeste 0 855.2 -1 91
2019-08-13 05:00:00 1.6 0 Calma 7 Oeste 0 855.3 -1.2 90
2019-08-13 04:00:00 3.4 3 Oeste 14 Noroeste 0 855.5 -1.4 88
2019-08-13 03:00:00 3.7 4 Noroeste 10 Noroeste 0 856.2 -1.1 89
2019-08-13 02:00:00 5.5 5 Oeste 11 Noroeste 0 856.5 -0.8 91
2019-08-13 01:00:00 7 5 Noroeste 16 Noroeste 0 856.9 0.1 86
2019-08-13 00:00:00 7.2 8 Noroeste 14 Norte 0 857.3 1.1 84
2019-08-12 23:00:00 7.5 8 Oeste 20 Noroeste 0 857.3 1.5 88
2019-08-12 22:00:00 8 13 Noroeste 21 Noroeste 0 856.8 0.7 83
2019-08-12 21:00:00 8.3 12 Noroeste 20 Oeste 0 856.2 -0.1 85
2019-08-12 20:00:00 9.2 9 Noroeste 17 Oeste 0 855.8 -0.5 79
2019-08-12 19:00:00 9.2 10 Noroeste 25 Norte 0 856.1 -0.4 76
2019-08-12 18:00:00 10.3 13 Noroeste 26 Oeste 0 856.3 -0.3 70
2019-08-12 17:00:00 10 12 Noroeste 24 Noroeste 0 856.3 -0.4 73
2019-08-12 16:00:00 9.9 18 Noroeste 27 Oeste 0 856.5 0 71
2019-08-12 15:00:00 9.5 10 Oeste 25 Oeste 0 856.6 0.4 71
2019-08-12 14:00:00 7.6 14 Oeste 32 Oeste 0 856.7 1 80
2019-08-12 13:00:00 7.7 21 Oeste 31 Oeste 0 856.5 1.3 77
2019-08-12 12:00:00 8.1 15 Oeste 34 Oeste 0 856.2 1.5 73
2019-08-12 11:00:00 6.2 22 Oeste 33 Oeste 0 855.7 1.3 83
2019-08-12 10:00:00 6.5 18 Oeste 34 Oeste 0 855.2 1.2 77
2019-08-12 09:00:00 6.3 19 Oeste 34 Oeste 0 854.7 1 76
2019-08-12 08:00:00 5.5 21 Oeste 37 Oeste 0 854.4 0.6 82
2019-08-12 07:00:00 5.8 16 Oeste 37 Oeste 0 854 0 80
2019-08-12 06:00:00 5.8 19 Oeste 31 Oeste 0 853.7 -0.5 81
2019-08-12 05:00:00 6 21 Oeste 39 Oeste 0 853.8 -0.6 77
2019-08-12 04:00:00 6.3 20 Oeste 34 Oeste 0 854 -0.4 80
2019-08-12 03:00:00 6.2 21 Oeste 33 Oeste 0 854.2 -0.3 84
2019-08-12 02:00:00 5.8 14 Oeste 27 Oeste 0 854.4 0 86
2019-08-12 01:00:00 6.1 23 Oeste 35 Oeste 0 854.4 0.4 84
2019-08-12 00:00:00 5.9 9 Noroeste 31 Oeste 0 854.5 0.8 88
2019-08-11 23:00:00 6.3 19 Oeste 31 Oeste 0 854.4 0.9 85
2019-08-11 22:00:00 6 10 Noroeste 28 Oeste 0 854 0.5 82
2019-08-11 21:00:00 7.8 18 Oeste 30 Oeste 0 853.7 0.8 78
2019-08-11 20:00:00 7.6 17 Oeste 32 Oeste 0 853.5 0.8 85
2019-08-11 19:00:00 6.8 22 Oeste 44 Oeste 0 853.5 0.9 90
2019-08-11 18:00:00 10.5 15 Noroeste 40 Oeste 0 852.9 0.2 78
2019-08-11 17:00:00 11.7 13 Noroeste 29 Noroeste 0 852.7 -0.1 75
2019-08-11 16:00:00 13.6 13 Oeste 29 Oeste 0 852.6 -0.4 63
2019-08-11 15:00:00 12.6 13 Noroeste 25 Oeste 0 852.7 0.1 71
2019-08-11 14:00:00 9.6 21 Oeste 28 Oeste 0 852.8 0.5 80
2019-08-11 13:00:00 10 19 Oeste 30 Oeste 0 853 1 84
2019-08-11 12:00:00 11 21 Oeste 28 Oeste 0 852.6 0.8 81
2019-08-11 11:00:00 10.5 15 Oeste 26 Noroeste 0 852.3 0.6 85
2019-08-11 10:00:00 8.4 8 Noroeste 14 Oeste 0 852 0.5 92
2019-08-11 09:00:00 8 10 Oeste 19 Oeste 0 851.8 0.4 94
2019-08-11 08:00:00 7.7 13 Oeste 21 Noroeste 0 851.7 -0.1 94
2019-08-11 07:00:00 7.6 15 Oeste 20 Oeste 0 851.5 -1.1 94
2019-08-11 06:00:00 6.9 4 Noroeste 13 Oeste 0 851.4 -1.4 93
2019-08-11 05:00:00 7.9 9 Oeste 30 Oeste 0 851.8 -1.7 93
2019-08-11 04:00:00 8.6 6 Sudeste 15 Noroeste 0 852.6 -1 94
2019-08-11 03:00:00 8.5 9 Oeste 16 Noroeste 0 852.8 -1.1 94
2019-08-11 02:00:00 8.7 12 Oeste 16 Oeste 0 853.5 -0.7 93
2019-08-11 01:00:00 8.9 6 Noroeste 18 Noroeste 0 853.6 -0.4 93
2019-08-11 00:00:00 8.9 12 Noroeste 19 Noroeste 0 853.9 -0.3 93
2019-08-10 23:00:00 9.4 12 Noroeste 18 Oeste 0 854.2 0.1 94
2019-08-10 22:00:00 10 10 Noroeste 18 Oeste 0 854 0 94
2019-08-10 21:00:00 10.2 8 Noroeste 21 Oeste 0 854.2 0.4 93
2019-08-10 20:00:00 11.3 13 Oeste 23 Noroeste 0 854.1 0.3 88
2019-08-10 19:00:00 11.5 12 Noroeste 29 Oeste 0 854 0.1 89
2019-08-10 18:00:00 14.1 25 Oeste 36 Oeste 0 853.8 -0.4 76
2019-08-10 17:00:00 14.9 18 Oeste 31 Noroeste 0 853.8 -0.4 69
2019-08-10 16:00:00 16.1 19 Oeste 31 Oeste 0 853.9 -0.5 62
2019-08-10 15:00:00 16 18 Oeste 28 Oeste 0 854.2 -0.3 60
2019-08-10 14:00:00 16.1 12 Noroeste 24 Este 0 854.2 0 59
2019-08-10 13:00:00 16.9 10 Este 22 Este 0 854.4 0.3 39
2019-08-10 12:00:00 15.4 14 Nordeste 27 Este 0 854.5 0.6 44
2019-08-10 11:00:00 14.7 18 Este 26 Este 0 854.2 0.6 48
2019-08-10 10:00:00 12.8 3 Este 12 Noroeste 0 854.1 0.8 66
2019-08-10 09:00:00 9.2 2 Noroeste 7 Noroeste 0 853.9 0.9 72
2019-08-10 08:00:00 5.2 5 Oeste 9 Oeste 0 853.6 0.8 86
2019-08-10 07:00:00 6.3 5 Noroeste 10 Este 0 853.3 0.7 81
2019-08-10 06:00:00 8 8 Sudeste 15 Sudeste 0 853 0.4 78
2019-08-10 05:00:00 8.2 3 Noroeste 10 Sudeste 0 852.8 -0.1 77
2019-08-10 04:00:00 8.8 5 Sudoeste 15 Nordeste 0 852.6 -0.2 70
2019-08-10 03:00:00 7.7 4 Noroeste 10 Noroeste 0 852.6 -0.1 76
2019-08-10 02:00:00 8.3 6 Oeste 9 Noroeste 0 852.9 0.3 72
2019-08-10 01:00:00 10.5 6 Sudeste 20 Oeste 0 852.8 0.7 64
2019-08-10 00:00:00 12.6 10 Oeste 21 Oeste 0 852.7 1.4 53
2019-08-09 23:00:00 12.6 6 Oeste 26 Sudoeste 0 852.6 1.4 54
2019-08-09 22:00:00 12.1 6 Oeste 18 Oeste 0 852.1 0.9 49
2019-08-09 21:00:00 14 9 Oeste 32 Oeste 0 851.3 0.3 42
2019-08-09 20:00:00 14 10 Oeste 24 Oeste 0 851.2 1 57
2019-08-09 19:00:00 14.2 17 Oeste 37 Sudoeste 0 851.2 1.1 55
2019-08-09 18:00:00 15.2 12 Sudoeste 34 Sudeste 0 851 1.4 49
2019-08-09 17:00:00 16.3 8 Sudoeste 27 Oeste 0 850.2 0.7 47
2019-08-09 16:00:00 17 10 Sudoeste 46 Sudeste 0 850.1 0.9 47
2019-08-09 15:00:00 17.9 8 Sudeste 33 Sudeste 0 849.6 0.8 45
2019-08-09 14:00:00 17.4 9 Sur 35 Sur 0.2 849.5 1.3 45
2019-08-09 13:00:00 17 17 Sudeste 37 Sur 0 849.2 1.5 43
2019-08-09 12:00:00 17.7 19 Sudeste 60 Sudeste 0 848.8 1.4 41
2019-08-09 11:00:00 16.3 18 Sudeste 38 Sudeste 0 848.2 1.3 54
2019-08-09 10:00:00 17.1 12 Sur 54 Sur 0 847.7 1.3 65
2019-08-09 09:00:00 16 6 Noroeste 24 Oeste 0 847.4 0.6 81
2019-08-09 08:00:00 16 8 Oeste 35 Sudeste 0 846.9 -0.3 83
2019-08-09 07:00:00 15.9 12 Sur 41 Sudeste 0 846.4 -1 83
2019-08-09 06:00:00 16.2 8 Sur 39 Sur 0 846.8 -0.9 82
2019-08-09 05:00:00 16 13 Sudeste 56 Sur 0.2 847.2 -0.9 82
2019-08-09 04:00:00 16.3 18 Sur 49 Sur 0 847.4 -1.2 80
2019-08-09 03:00:00 16.8 18 Sur 53 Sur 0 847.7 -1.2 75
2019-08-09 02:00:00 16.9 18 Sur 53 Sudeste 0 848.1 -0.5 73
2019-08-09 01:00:00 17.1 14 Sur 44 Sur 0 848.6 0.2 72
2019-08-09 00:00:00 17.3 15 Sur 42 Sur 0 848.9 1 70
2019-08-08 23:00:00 17.4 14 Sur 40 Sur 0 848.6 0.8 67
2019-08-08 22:00:00 17.8 11 Sur 40 Sur 0 848.4 0.5 69
2019-08-08 21:00:00 18.6 12 Sur 37 Sudeste 0 847.9 -0.5 69
2019-08-08 20:00:00 18.4 12 Sur 42 Sudeste 0 847.8 -0.9 71
2019-08-08 19:00:00 18.2 20 Sur 55 Sudeste 0 847.9 -0.9 76
2019-08-08 18:00:00 17.6 16 Sur 47 Sur 0 848.4 -1.1 79
2019-08-08 17:00:00 17.6 17 Sur 45 Sur 0 848.7 -0.9 80
2019-08-08 16:00:00 18.5 18 Sur 40 Sudoeste 0 848.8 -0.9 75
2019-08-08 15:00:00 17.4 14 Sur 34 Sur 0.2 849.5 0 78
2019-08-08 14:00:00 17.1 10 Sur 34 Sudeste 0 849.6 0.1 80
2019-08-08 13:00:00 16.3 10 Sur 39 Sudeste 0 849.7 0.2 83
2019-08-08 12:00:00 17.4 13 Este 40 Este 0 849.5 0.4 79
2019-08-08 11:00:00 14.7 21 Sudeste 39 Sudeste 0 849.5 0.5 87
2019-08-08 10:00:00 14.6 20 Sudeste 33 Este 0 849.5 0.8 86
2019-08-08 09:00:00 14.6 11 Sudeste 33 Este 0 849.1 0.1 85
2019-08-08 08:00:00 13.5 17 Este 31 Este 0 849 -0.2 92
2019-08-08 07:00:00 13.3 19 Este 32 Este 0 848.7 -0.7 93
2019-08-08 06:00:00 13.5 15 Este 38 Este 0 849 -0.5 91
2019-08-08 05:00:00 14 18 Este 45 Sudeste 0 849.2 -0.4 87
2019-08-08 04:00:00 13.3 14 Este 34 Este 0 849.4 0 90
2019-08-08 03:00:00 13.7 12 Este 34 Este 0 849.5 0.1 88
2019-08-08 02:00:00 13.7 15 Este 33 Este 0 849.6 -0.2 89
2019-08-08 01:00:00 13.6 21 Este 45 Este 0 849.4 -0.4 89
2019-08-08 00:00:00 13.7 23 Este 42 Este 0 849.4 0 88
2019-08-07 23:00:00 13.9 18 Este 26 Este 0 849.8 0.2 88
2019-08-07 22:00:00 14.2 14 Este 30 Este 0.2 849.8 0.2 85
2019-08-07 21:00:00 14.9 12 Este 21 Este 0 849.4 -0.3 81
2019-08-07 20:00:00 15.4 6 Sudeste 23 Sur 0 849.6 0 73
2019-08-07 19:00:00 16.2 11 Este 26 Sur 0 849.6 -0.1 68
2019-08-07 18:00:00 17.1 10 Sudeste 27 Sudeste 0 849.7 0 63
2019-08-07 17:00:00 18.2 11 Sur 31 Sudeste 0.2 849.6 -0.1 56
2019-08-07 16:00:00 19.6 11 Sur 30 Sur 0.4 849.7 0 51
2019-08-07 15:00:00 19 13 Sur 32 Sur 0.4 849.7 -0.1 52
2019-08-07 14:00:00 18.6 10 Sudeste 30 Este 0.6 849.7 0 53
2019-08-07 13:00:00 19 12 Sudeste 30 Este 1 849.7 0.1 51
2019-08-07 12:00:00 17.9 6 Sudeste 31 Sudeste 0.8 849.8 0.5 52
2019-08-07 11:00:00 17 9 Nordeste 18 Este 1.2 849.7 0.6 60
2019-08-07 10:00:00 14.1 7 Noroeste 12 Noroeste 1 849.6 0.6 67
2019-08-07 09:00:00 12.7 0 Calma 11 Oeste 0.6 849.3 0.6 80
2019-08-07 08:00:00 9.5 9 Oeste 15 Oeste 0.6 849.1 0.4 86
2019-08-07 07:00:00 9 3 Oeste 9 Noroeste 0.6 849 0.2 85
2019-08-07 06:00:00 9.9 5 Noroeste 11 Sudoeste 0 848.7 -0.4 82
2019-08-07 05:00:00 10.7 6 Noroeste 13 Noroeste 0 848.7 -0.8 82
2019-08-07 04:00:00 11 9 Noroeste 13 Noroeste 0.2 848.8 -0.7 81
2019-08-07 03:00:00 11.7 10 Oeste 17 Oeste 0 849.1 -1.1 81
2019-08-07 02:00:00 11.7 5 Noroeste 12 Noroeste 0 849.5 -0.7 85
2019-08-07 01:00:00 12.2 8 Oeste 17 Oeste 0 849.5 -0.5 87
2019-08-07 00:00:00 12.6 10 Oeste 14 Noroeste 0 850.2 0.2 93
2019-08-06 23:00:00 12.7 3 Noroeste 21 Oeste 0 850.2 0 94
2019-08-06 22:00:00 12.6 7 Oeste 32 Oeste 0 850 -0.4 94
2019-08-06 21:00:00 13 12 Oeste 29 Oeste 0 850 0 94
2019-08-06 20:00:00 13.8 12 Noroeste 26 Oeste 0 850.2 0.2 93
2019-08-06 19:00:00 15.1 15 Oeste 28 Oeste 0 850.4 0 91
2019-08-06 18:00:00 16.7 18 Oeste 31 Oeste 0 850 -0.5 85
2019-08-06 17:00:00 17.7 20 Noroeste 29 Oeste 0 850 -0.4 79
2019-08-06 16:00:00 18.6 17 Noroeste 30 Oeste 0 850.4 -0.3 77
2019-08-06 15:00:00 18.5 20 Oeste 32 Noroeste 0 850.5 -0.5 75
2019-08-06 14:00:00 22.8 21 Este 31 Este 0 850.4 -0.3 43
2019-08-06 13:00:00 20.1 17 Este 26 Este 0 850.7 -0.2 57
2019-08-06 12:00:00 18.8 12 Este 27 Este 0 851 0.4 64
2019-08-06 11:00:00 17.4 10 Este 22 Este 0 850.7 0.2 68
2019-08-06 10:00:00 15.2 4 Este 9 Este 0 850.9 0.3 81
2019-08-06 09:00:00 13.2 0 Calma 5 Sur 0 850.6 -0.3 90
2019-08-06 08:00:00 10.4 0 Calma 6 Sudeste 0 850.5 -0.9 90
2019-08-06 07:00:00 10.1 2 Oeste 6 Noroeste 0 850.6 -0.8 92
2019-08-06 06:00:00 10 4 Oeste 8 Oeste 0 850.9 -0.7 91
2019-08-06 05:00:00 10.3 3 Oeste 5 Noroeste 0 851.4 -0.7 92
2019-08-06 04:00:00 11.3 2 Sur 9 Sudeste 0 851.4 -0.6 90
2019-08-06 03:00:00 12.6 3 Este 14 Sudoeste 0 851.6 -0.8 88
2019-08-06 02:00:00 13.8 8 Oeste 12 Oeste 0 852.1 -0.4 91
2019-08-06 01:00:00 13.9 0 Calma 13 Noroeste 0 852 -0.2 94
2019-08-06 00:00:00 14 10 Noroeste 13 Noroeste 0 852.4 0.5 93
2019-08-05 23:00:00 14.3 8 Noroeste 15 Oeste 0 852.5 0.9 93
2019-08-05 22:00:00 14.5 12 Oeste 18 Oeste 0 852.2 0.6 93
2019-08-05 21:00:00 15.3 15 Oeste 30 Oeste 0 851.9 0.1 89
2019-08-05 20:00:00 16.5 22 Oeste 31 Oeste 0 851.6 -0.3 83
2019-08-05 19:00:00 18.6 20 Oeste 35 Oeste 0 851.6 -0.5 73
2019-08-05 18:00:00 19.6 24 Oeste 31 Oeste 0 851.8 -0.3 65
2019-08-05 17:00:00 20 23 Oeste 32 Oeste 0 851.9 -0.3 63
2019-08-05 16:00:00 20.1 23 Oeste 35 Oeste 0 852.1 -0.3 61
2019-08-05 15:00:00 20 20 Oeste 33 Oeste 0 852.1 -0.3 58
2019-08-05 14:00:00 19.1 23 Oeste 35 Oeste 0 852.2 -0.3 60
2019-08-05 13:00:00 19.3 19 Oeste 28 Oeste 0 852.4 -0.2 54
2019-08-05 12:00:00 21 15 Este 22 Este 0 852.4 -0.3 52
2019-08-05 11:00:00 19.4 11 Este 22 Este 0 852.5 -0.2 56
2019-08-05 10:00:00 17.6 12 Este 16 Este 0 852.6 0 57
2019-08-05 09:00:00 12.7 0 Calma 10 Oeste 0 852.7 0.1 73
2019-08-05 08:00:00 8.5 7 Oeste 12 Oeste 0 852.7 -0.2 77
2019-08-05 07:00:00 8.3 7 Oeste 11 Oeste 0 852.6 -0.4 77
2019-08-05 06:00:00 8.8 5 Oeste 13 Oeste 0 852.6 -0.3 76
2019-08-05 05:00:00 8.1 8 Oeste 11 Oeste 0 852.9 -0.2 82
2019-08-05 04:00:00 9.4 3 Oeste 9 Sudoeste 0 853 -0.4 82
2019-08-05 03:00:00 10.5 2 Oeste 8 Este 0 852.9 -0.5 92
2019-08-05 02:00:00 12.2 2 Sur 15 Oeste 0 853.1 -0.5 91
2019-08-05 01:00:00 13.2 9 Oeste 18 Noroeste 0 853.4 0.2 92
2019-08-05 00:00:00 13.3 10 Noroeste 17 Noroeste 0 853.4 0.4 94
2019-08-04 23:00:00 13.5 11 Noroeste 17 Oeste 0 853.6 0.7 94
2019-08-04 22:00:00 13.5 12 Oeste 22 Oeste 0 853.2 0.8 93
2019-08-04 21:00:00 13.9 15 Oeste 23 Oeste 0 853 1.1 91
2019-08-04 20:00:00 13.7 19 Oeste 27 Oeste 0 852.9 1.3 93
2019-08-04 19:00:00 14.1 20 Oeste 37 Oeste 0 852.4 0.3 92
2019-08-04 18:00:00 15.1 34 Oeste 45 Oeste 0 851.9 -0.3 88
2019-08-04 17:00:00 18.3 23 Oeste 36 Oeste 0 851.6 -0.5 75
2019-08-04 16:00:00 15.6 32 Oeste 40 Oeste 0 852.1 0 85
2019-08-04 15:00:00 16.6 27 Oeste 37 Oeste 0 852.2 0.2 80
2019-08-04 14:00:00 17.7 22 Oeste 33 Noroeste 0 852.1 0.2 74
2019-08-04 13:00:00 20.9 12 Noroeste 24 Sudeste 0 852.1 0.2 54
2019-08-04 12:00:00 21.3 12 Sudeste 27 Sudeste 0 852 0.1 44
2019-08-04 11:00:00 20.6 11 Sudeste 25 Sudeste 0 851.9 0.2 48
2019-08-04 10:00:00 19 13 Este 26 Sudeste 0 851.9 0.3 59
2019-08-04 09:00:00 13.4 6 Noroeste 12 Noroeste 0 851.9 0.2 86
2019-08-04 08:00:00 11 9 Noroeste 16 Oeste 0 851.7 -0.2 91
2019-08-04 07:00:00 9.3 4 Oeste 6 Oeste 0 851.6 -0.4 88
2019-08-04 06:00:00 10.3 2 Oeste 10 Noroeste 0 851.7 -0.6 86
2019-08-04 05:00:00 10 7 Noroeste 11 Noroeste 0 851.9 -0.7 89
2019-08-04 04:00:00 9.7 0 Calma 7 Oeste 0 852 -0.9 86
2019-08-04 03:00:00 10.3 4 Oeste 8 Noroeste 0 852.3 -0.6 86
2019-08-04 02:00:00 10.5 4 Noroeste 9 Noroeste 0 852.6 -0.3 87
2019-08-04 01:00:00 12.1 8 Oeste 14 Oeste 0 852.9 0.4 90
2019-08-04 00:00:00 12.3 10 Oeste 15 Oeste 0 852.9 0.5 90
2019-08-03 23:00:00 13 7 Noroeste 18 Noroeste 0 852.9 0.5 87
2019-08-03 22:00:00 14.9 15 Oeste 21 Noroeste 0 852.5 0.1 80
2019-08-03 21:00:00 16 13 Oeste 21 Oeste 0 852.4 0 74
2019-08-03 20:00:00 16.5 16 Oeste 25 Oeste 0 852.4 0.2 75
2019-08-03 19:00:00 17.7 19 Oeste 28 Oeste 0 852.4 0.1 73
2019-08-03 18:00:00 18.1 19 Oeste 37 Oeste 0 852.4 0.2 77
2019-08-03 17:00:00 20.2 21 Oeste 30 Oeste 0 852.2 -0.2 70
2019-08-03 16:00:00 19.7 21 Oeste 32 Noroeste 0 852.3 -0.2 68
2019-08-03 15:00:00 22.7 22 Oeste 36 Noroeste 0 852.2 -0.3 56
2019-08-03 14:00:00 24.2 6 Nordeste 34 Este 0 852.4 -0.2 41
2019-08-03 13:00:00 24.1 7 Sudeste 24 Este 0 852.5 -0.1 39
2019-08-03 12:00:00 22.7 8 Sur 26 Sur 0 852.5 -0.1 39
2019-08-03 11:00:00 21.6 6 Sudoeste 27 Sudeste 0 852.6 0.1 42
2019-08-03 10:00:00 19.9 10 Este 18 Este 0 852.6 0.1 52
2019-08-03 09:00:00 16.3 5 Este 8 Este 0 852.6 0 64
2019-08-03 08:00:00 9.7 0 Calma 8 Sudeste 0 852.5 -0.2 86
2019-08-03 07:00:00 9.4 2 Noroeste 6 Sudeste 0 852.5 -0.5 87
2019-08-03 06:00:00 10 5 Sudeste 9 Sudeste 0 852.6 -0.5 84
2019-08-03 05:00:00 10.1 3 Sudeste 7 Noroeste 0 852.7 -0.7 81
2019-08-03 04:00:00 10.4 2 Noroeste 7 Oeste 0 853 -0.8 83
2019-08-03 03:00:00 10.7 6 Oeste 10 Oeste 0 853.1 -0.9 80
2019-08-03 02:00:00 11.3 7 Oeste 13 Noroeste 0 853.4 -0.7 78
2019-08-03 01:00:00 11.6 6 Oeste 11 Noroeste 0 853.8 0 79
2019-08-03 00:00:00 12 6 Oeste 11 Noroeste 0 854 0.2 81
2019-08-02 23:00:00 12.6 9 Noroeste 12 Noroeste 0 854.1 0.5 81
2019-08-02 22:00:00 13.7 9 Oeste 17 Noroeste 0 853.8 0 80
2019-08-02 21:00:00 17.5 16 Oeste 22 Oeste 0 853.8 0 67
2019-08-02 20:00:00 18.9 17 Oeste 24 Oeste 0 853.6 -0.3 64
2019-08-02 19:00:00 19.8 17 Oeste 28 Noroeste 0 853.8 -0.2 63
2019-08-02 18:00:00 19.7 14 Noroeste 27 Noroeste 0 853.8 -0.1 67
2019-08-02 17:00:00 20.3 21 Noroeste 26 Oeste 0 853.9 0.1 59
2019-08-02 16:00:00 21.5 17 Oeste 28 Oeste 0 854 0.2 60
2019-08-02 15:00:00 21.3 17 Oeste 28 Noroeste 0 853.9 0.2 51
2019-08-02 14:00:00 21.3 13 Oeste 25 Oeste 0 853.8 0.3 52
2019-08-02 13:00:00 18.8 17 Noroeste 21 Este 0 853.8 0.5 58
2019-08-02 12:00:00 22.3 14 Este 23 Este 0 853.7 0.7 42
2019-08-02 11:00:00 21 12 Este 18 Nordeste 0 853.5 0.7 47
2019-08-02 10:00:00 18.5 6 Este 9 Este 0 853.3 0.8 52
2019-08-02 09:00:00 12.6 0 Calma 3 Noroeste 0 853 0.5 72
2019-08-02 08:00:00 8.1 2 Oeste 6 Oeste 0 852.8 0.2 82
2019-08-02 07:00:00 7.8 5 Oeste 7 Oeste 0 852.5 -0.4 79
2019-08-02 06:00:00 8.1 6 Oeste 9 Oeste 0 852.5 -0.6 78
2019-08-02 05:00:00 8.6 7 Oeste 11 Oeste 0 852.6 -0.7 72
2019-08-02 04:00:00 7.7 6 Oeste 9 Oeste 0 852.9 -0.6 72
2019-08-02 03:00:00 7.5 6 Oeste 9 Noroeste 0 853.1 -0.3 77
2019-08-02 02:00:00 8.3 6 Oeste 13 Oeste 0 853.3 -0.1 79
2019-08-02 01:00:00 10.7 12 Oeste 18 Oeste 0 853.5 0.7 92
2019-08-02 00:00:00 11 15 Oeste 22 Oeste 0 853.4 0.9 90
2019-08-01 23:00:00 12.4 12 Oeste 18 Noroeste 0 853.4 1.3 88
2019-08-01 22:00:00 12.7 10 Oeste 22 Oeste 0 852.8 1 87
2019-08-01 21:00:00 13.4 15 Oeste 25 Oeste 0 852.5 0.9 88
2019-08-01 20:00:00 15.8 18 Oeste 27 Oeste 0 852.1 0.6 75
2019-08-01 19:00:00 16.3 20 Oeste 30 Oeste 0 851.8 0.4 72
2019-08-01 18:00:00 16.5 20 Oeste 28 Oeste 0 851.6 0.4 72
2019-08-01 17:00:00 16.9 23 Oeste 31 Oeste 0 851.5 0.3 68
2019-08-01 16:00:00 17 18 Oeste 28 Noroeste 0 851.4 0.3 71
2019-08-01 15:00:00 16.5 22 Oeste 29 Oeste 0 851.2 0.5 74
2019-08-01 14:00:00 14.2 21 Oeste 30 Oeste 0 851.2 0.8 81
2019-08-01 13:00:00 12.4 23 Oeste 32 Oeste 0 851.1 1 89
2019-08-01 12:00:00 11.1 26 Oeste 32 Oeste 0 850.7 0.7 92
2019-08-01 11:00:00 10.5 23 Oeste 30 Oeste 0 850.4 0.4 93
2019-08-01 10:00:00 10.6 20 Oeste 24 Oeste 0 850.1 0.2 92
2019-08-01 09:00:00 10.8 4 Oeste 17 Oeste 0 850 0.1 94
2019-08-01 08:00:00 8.4 11 Oeste 22 Oeste 0 850 0 94
2019-08-01 07:00:00 8.5 17 Oeste 25 Oeste 0 849.9 -0.6 94
2019-08-01 06:00:00 7.7 13 Oeste 19 Noroeste 0 849.9 -1.2 94
2019-08-01 05:00:00 7 12 Noroeste 18 Noroeste 0 850 -1.4 94
2019-08-01 04:00:00 7.6 9 Oeste 12 Noroeste 0 850.5 -1.3 84
2019-08-01 03:00:00 8 5 Oeste 18 Oeste 0 851.1 -0.8 93
2019-08-01 02:00:00 9.6 13 Oeste 18 Oeste 0 851.4 -0.8 94
2019-08-01 01:00:00 10.2 17 Oeste 22 Oeste 0 851.8 -0.1 93
2019-08-01 00:00:00 10.5 15 Oeste 19 Oeste 0 851.9 0 93
2019-07-31 23:00:00 10.9 12 Oeste 20 Oeste 0 852.2 0.3 92
2019-07-31 22:00:00 11.2 16 Oeste 22 Oeste 0 851.9 -0.1 92
2019-07-31 21:00:00 11.9 16 Oeste 24 Oeste 0 851.9 -0.1 90
2019-07-31 20:00:00 12.4 17 Oeste 31 Oeste 0 851.9 -0.4 87
2019-07-31 19:00:00 13.4 22 Oeste 32 Oeste 0 852 -0.3 84
2019-07-31 18:00:00 14.1 19 Oeste 28 Oeste 0 852 -0.4 80
2019-07-31 17:00:00 14.9 21 Oeste 29 Oeste 0 852.3 -0.3 77
2019-07-31 16:00:00 15.4 23 Oeste 30 Oeste 0 852.3 -0.6 75
2019-07-31 15:00:00 16.3 19 Oeste 26 Oeste 0 852.4 -0.7 68
2019-07-31 14:00:00 15.5 17 Oeste 27 Oeste 0 852.6 -0.5 66
2019-07-31 13:00:00 15 18 Oeste 23 Noroeste 0 852.9 -0.3 68
2019-07-31 12:00:00 14.9 14 Oeste 19 Noroeste 0 853.1 -0.1 61
2019-07-31 11:00:00 15.5 8 Este 19 Este 0 853.1 0 58
2019-07-31 10:00:00 12.9 10 Nordeste 15 Nordeste 0 853.2 0.3 67
2019-07-31 09:00:00 10 5 Este 9 Este 0 853.2 0.1 77
2019-07-31 08:00:00 5.5 0 Calma 9 Oeste 0 853.1 -0.3 89
2019-07-31 07:00:00 4.3 4 Oeste 7 Oeste 0 852.9 -0.7 91
2019-07-31 06:00:00 4.1 3 Oeste 7 Sudeste 0 853.1 -0.7 93
2019-07-31 05:00:00 4.6 2 Norte 8 Sudeste 0 853.4 -0.8 93
2019-07-31 04:00:00 6.3 4 Sudeste 10 Sudeste 0 853.6 -0.9 93
2019-07-31 03:00:00 7.2 5 Sudeste 9 Sudeste 0 853.8 -0.8 94
2019-07-31 02:00:00 7.5 6 Noroeste 17 Noroeste 0 854.2 -0.4 94
2019-07-31 01:00:00 7.6 11 Oeste 17 Oeste 0 854.5 0.4 94
2019-07-31 00:00:00 7.9 10 Oeste 15 Oeste 0 854.6 0.5 94
2019-07-30 23:00:00 8.2 8 Noroeste 18 Oeste 0 854.6 0.6 94
2019-07-30 22:00:00 8.3 14 Oeste 22 Noroeste 0 854.1 0 93
2019-07-30 21:00:00 9 14 Oeste 22 Oeste 0 854.1 0 91
2019-07-30 20:00:00 9.9 17 Oeste 27 Oeste 0 854 -0.2 86
2019-07-30 19:00:00 11.4 21 Oeste 30 Oeste 0 854.1 -0.2 75
2019-07-30 18:00:00 13.2 21 Oeste 32 Oeste 0 854.1 -0.2 62
2019-07-30 17:00:00 13.3 20 Oeste 34 Oeste 0 854.2 -0.1 60
2019-07-30 16:00:00 13.3 20 Oeste 32 Oeste 0 854.3 0 60
2019-07-30 15:00:00 12.4 19 Oeste 32 Oeste 0 854.3 0 61
2019-07-30 14:00:00 11.8 17 Oeste 28 Oeste 0 854.3 0.5 60
2019-07-30 13:00:00 11 15 Oeste 27 Oeste 0 854.3 0.6 59
2019-07-30 12:00:00 9.9 17 Oeste 32 Oeste 0 854.3 1.2 64
2019-07-30 11:00:00 8.9 22 Oeste 36 Oeste 0 853.8 1 67
2019-07-30 10:00:00 7.6 21 Oeste 37 Oeste 0 853.7 1.4 73
2019-07-30 09:00:00 7.2 16 Oeste 32 Oeste 0 853.1 1 72
2019-07-30 08:00:00 6.2 14 Oeste 40 Oeste 0 852.8 0.6 75
2019-07-30 07:00:00 6.3 14 Noroeste 31 Oeste 0 852.3 0.2 77
2019-07-30 06:00:00 6.1 8 Noroeste 20 Noroeste 0 852.1 0.3 82
2019-07-30 05:00:00 6.3 13 Oeste 32 Oeste 0 852.2 0.4 81
2019-07-30 04:00:00 6.5 21 Oeste 44 Oeste 0 852.1 0.6 79
2019-07-30 03:00:00 6.9 23 Oeste 37 Oeste 0 851.8 0.5 77
2019-07-30 02:00:00 7.4 12 Oeste 29 Oeste 0 851.8 0.8 86
2019-07-30 01:00:00 7.9 15 Oeste 24 Oeste 0 851.5 1.2 86
2019-07-30 00:00:00 8.1 10 Noroeste 26 Oeste 0 851.3 1.5 90
2019-07-29 23:00:00 9.1 19 Oeste 30 Oeste 0 851 1.6 84
2019-07-29 22:00:00 9.4 16 Oeste 29 Oeste 0 850.3 1.2 89
2019-07-29 21:00:00 10.5 22 Oeste 33 Oeste 0 849.8 0.8 82
2019-07-29 20:00:00 12.3 14 Noroeste 26 Noroeste 0 849.4 0.5 74
2019-07-29 19:00:00 13 15 Norte 28 Noroeste 0 849.1 0.6 71
2019-07-29 18:00:00 14.8 18 Noroeste 30 Noroeste 0 849 1.1 67
2019-07-29 17:00:00 13.6 16 Noroeste 35 Noroeste 0 848.9 1.2 71
2019-07-29 16:00:00 14.4 17 Noroeste 30 Oeste 0 848.5 1.2 74
2019-07-29 15:00:00 15.3 19 Oeste 32 Oeste 0 847.9 0.7 73
2019-07-29 14:00:00 15.7 19 Oeste 25 Oeste 0 847.7 0.6 72
2019-07-29 13:00:00 17 18 Noroeste 31 Sudeste 0 847.3 0.5 55
2019-07-29 12:00:00 16.8 17 Sudeste 32 Sudeste 0 847.2 0.3 51
2019-07-29 11:00:00 17.5 4 Nordeste 15 Nordeste 0 847.1 0.5 56
2019-07-29 10:00:00 15 8 Oeste 28 Oeste 0 846.8 0.4 60
2019-07-29 09:00:00 13.3 5 Este 11 Este 0 846.9 0.4 62
2019-07-29 08:00:00 8.4 3 Este 15 Sudeste 0 846.6 -0.1 76
2019-07-29 07:00:00 8.2 5 Este 12 Sudeste 0 846.4 -0.4 74
2019-07-29 06:00:00 7.3 3 Noroeste 7 Sudoeste 0 846.5 -0.7 80
2019-07-29 05:00:00 7.1 4 Noroeste 7 Oeste 0 846.7 -0.8 81
2019-07-29 04:00:00 9.2 5 Sudeste 11 Sudoeste 0 846.8 -0.8 74
2019-07-29 03:00:00 8.2 3 Oeste 8 Noroeste 0 847.2 -0.4 80
2019-07-29 02:00:00 9.3 5 Oeste 10 Sudeste 0 847.5 -0.1 75
2019-07-29 01:00:00 12.1 6 Sudeste 22 Sudoeste 0 847.6 0.3 65
2019-07-29 00:00:00 13.4 9 Sudoeste 19 Sudoeste 0 847.6 0.4 60
2019-07-28 23:00:00 14.6 5 Nordeste 23 Sudoeste 0 847.6 0.5 60
2019-07-28 22:00:00 16.1 12 Sudoeste 29 Sur 0 847.3 0.2 51
2019-07-28 21:00:00 18.5 13 Sudoeste 33 Oeste 0 847.2 0 41
2019-07-28 20:00:00 19.6 6 Nordeste 26 Sudeste 0 847.1 -0.5 34
2019-07-28 19:00:00 19.7 4 Sur 27 Sudeste 0 847.1 -0.6 40
2019-07-28 18:00:00 18.8 17 Este 31 Este 0 847.2 -0.8 49
2019-07-28 17:00:00 17.6 13 Sudeste 35 Este 0 847.6 -0.6 51
2019-07-28 16:00:00 18 20 Este 31 Este 0 847.7 -0.7 54
2019-07-28 15:00:00 15.5 15 Sudeste 27 Este 0 848 -0.5 58
2019-07-28 14:00:00 16.2 19 Este 32 Este 1 848.2 -0.3 61
2019-07-28 13:00:00 15.4 16 Este 28 Este 6.8 848.4 -0.1 63
2019-07-28 12:00:00 14.2 16 Este 29 Este 0.2 848.5 0 64
2019-07-28 11:00:00 12.6 14 Este 26 Este 0 848.5 0 69
2019-07-28 10:00:00 10.8 15 Este 21 Este 0 848.5 0.1 75
2019-07-28 09:00:00 8.4 4 Sudeste 8 Este 0.2 848.5 0.1 80
2019-07-28 08:00:00 3.1 3 Noroeste 8 Oeste 0 848.5 -0.1 90
2019-07-28 07:00:00 3.4 5 Oeste 12 Noroeste 0 848.4 -0.5 90
2019-07-28 06:00:00 3.3 3 Oeste 11 Noroeste 0 848.4 -0.8 89
2019-07-28 05:00:00 4.5 6 Oeste 14 Noroeste 0 848.6 -0.8 91
2019-07-28 04:00:00 6 8 Oeste 12 Oeste 0 848.9 -0.4 91
2019-07-28 03:00:00 7.3 9 Noroeste 22 Oeste 0 849.2 0 93
2019-07-28 02:00:00 7.5 10 Oeste 18 Oeste 0 849.4 0.3 92
2019-07-28 01:00:00 7.5 8 Noroeste 21 Norte 0 849.3 0.7 91
2019-07-28 00:00:00 7.8 9 Oeste 24 Noroeste 0 849.2 0.9 90
2019-07-27 23:00:00 8 14 Oeste 39 Noroeste 0 849.1 1.3 87
2019-07-26 12:00:00 9.5 13 Noroeste 21 Oeste 0 850.8 0.7 93
2019-07-26 11:00:00 8.8 14 Oeste 22 Noroeste 0 850.6 0.5 93
2019-07-26 10:00:00 9.4 13 Noroeste 21 Noroeste 0 850.5 0.5 92
2019-07-26 09:00:00 9.7 15 Oeste 20 Oeste 0 850.1 0.1 93
2019-07-26 08:00:00 10.1 8 Noroeste 21 Noroeste 0 850.1 0 92
2019-07-26 07:00:00 11.1 4 Noroeste 18 Norte 0 850 -0.1 91
2019-07-26 06:00:00 11.3 12 Oeste 18 Oeste 0 850 -0.7 93
2019-07-26 05:00:00 11.6 10 Oeste 18 Noroeste 0 850.1 -0.9 93
2019-07-26 04:00:00 12.1 8 Norte 15 Noroeste 0 850.1 -0.9 93
2019-07-26 03:00:00 12.4 7 Noroeste 11 Oeste 0 850.7 -0.4 94
2019-07-26 02:00:00 12.4 7 Noroeste 18 Noroeste 0 851 0.2 94
2019-07-26 01:00:00 12.5 16 Oeste 27 Oeste 0 851 0.1 94
2019-07-26 00:00:00 12.7 17 Oeste 27 Este 0 851.1 0.1 92
2019-07-25 23:00:00 16.3 15 Sur 39 Sur 0 850.8 0.2 63
2019-07-25 22:00:00 14.3 10 Oeste 32 Oeste 0 850.9 0.9 77
2019-07-25 21:00:00 13.8 17 Oeste 26 Oeste 0 851 0.9 94
2019-07-25 20:00:00 14 21 Noroeste 37 Oeste 0 850.6 0.3 94
2019-07-25 19:00:00 14.6 28 Oeste 37 Oeste 0 850 -0.5 92
2019-07-25 18:00:00 17.8 22 Oeste 36 Sudoeste 0 850.1 -0.5 82
2019-07-25 17:00:00 23.9 14 Sur 32 Sudoeste 0 850.3 -0.4 36
2019-07-25 16:00:00 23.8 15 Sur 36 Sudeste 0 850.5 -0.5 32
2019-07-25 15:00:00 23.9 14 Sur 40 Sudeste 0 850.6 -0.1 33
2019-07-25 14:00:00 21.9 13 Sur 32 Sur 0 850.7 0.1 36
2019-07-25 13:00:00 21.8 14 Sur 43 Sur 0 851 0.5 30
2019-07-25 12:00:00 22 12 Sur 42 Oeste 0 850.7 0.3 27
2019-07-25 11:00:00 21.8 12 Sur 36 Sur 0 850.6 0.4 26
2019-07-25 10:00:00 21.3 14 Nordeste 29 Sur 0 850.5 0.4 35
2019-07-25 09:00:00 20.2 9 Sudeste 27 Sudeste 0 850.4 0.5 34
2019-07-25 08:00:00 19.4 12 Sudeste 44 Sudeste 0 850.2 0.2 40
2019-07-25 07:00:00 19.9 15 Sudeste 37 Sudeste 0 850.1 -0.1 38
2019-07-25 06:00:00 19.7 11 Sur 39 Sur 0 849.9 -0.8 40
2019-07-25 05:00:00 19.1 11 Este 35 Sudeste 0 850 -1.2 46
2019-07-25 04:00:00 19.4 9 Este 35 Sur 0 850.2 -1.2 43
2019-07-25 03:00:00 18.1 8 Oeste 30 Sudeste 0 850.7 -0.9 47
2019-07-25 02:00:00 15.3 3 Noroeste 10 Noroeste 0 851.2 -0.3 59
2019-07-25 01:00:00 15.4 4 Sudoeste 10 Sur 0 851.4 0.1 59
2019-07-25 00:00:00 16.7 3 Oeste 10 Noroeste 0 851.6 0.3 55
2019-07-24 23:00:00 18.3 5 Sudeste 15 Sur 0 851.5 0.3 50
2019-07-24 22:00:00 21.2 6 Sudoeste 30 Sur 0 851.3 -0.3 36
2019-07-24 21:00:00 24.5 10 Sur 43 Sur 0 851.3 -0.7 29
2019-07-24 20:00:00 25 11 Sur 44 Sur 0 851.2 -1.1 28
2019-07-24 19:00:00 25.4 12 Sur 32 Oeste 0 851.6 -1 31
2019-07-24 18:00:00 25.1 14 Sur 33 Sudeste 0 852 -0.8 32
2019-07-24 17:00:00 25.1 13 Sudoeste 38 Sudoeste 0 852.3 -0.6 31
2019-07-24 16:00:00 25.1 15 Sur 40 Sudoeste 0 852.6 -0.2 30
2019-07-24 15:00:00 24.7 15 Sudoeste 45 Sur 0 852.8 0.1 33
2019-07-24 14:00:00 24.6 15 Sur 42 Sur 0 852.9 0 41
2019-07-24 13:00:00 24.2 11 Sudeste 50 Oeste 0 852.8 -0.2 43
2019-07-24 12:00:00 23.5 24 Este 38 Este 0 852.7 -0.6 49
2019-07-24 11:00:00 21.6 22 Este 32 Este 0 852.9 -0.3 51
2019-07-24 10:00:00 20.6 17 Este 32 Este 0.2 853 -0.1 54
2019-07-24 09:00:00 18.6 8 Este 24 Sudeste 0 853.3 0.1 59
2019-07-24 08:00:00 14.7 6 Nordeste 10 Nordeste 0 853.2 0.1 68
2019-07-24 07:00:00 13.5 3 Noroeste 20 Sudeste 0 853.1 -0.4 72
2019-07-24 06:00:00 17.1 17 Sudeste 31 Sudeste 0 853.2 -0.8 58
2019-07-24 05:00:00 15.8 11 Sudeste 18 Sudeste 0 853.1 -1.6 68
2019-07-24 04:00:00 15.3 8 Este 30 Sur 0 853.5 -1.2 70
2019-07-24 03:00:00 17 14 Sudeste 33 Sudeste 0 854 -0.5 64
2019-07-24 02:00:00 17.7 18 Sudeste 41 Sudeste 0.2 854.7 0.8 63
2019-07-24 01:00:00 12.4 3 Oeste 10 Sudoeste 0 854.7 0.3 80
2019-07-24 00:00:00 14.9 6 Este 14 Este 0 854.5 0.6 71
2019-07-23 23:00:00 15.9 6 Este 34 Oeste 0.6 853.9 0 69
2019-07-23 22:00:00 16.7 9 Sudoeste 46 Oeste 0.8 854.4 0.8 66
2019-07-23 21:00:00 18.7 8 Sudeste 24 Oeste 0 853.9 0.1 75
2019-07-23 20:00:00 18.4 19 Oeste 45 Oeste 0 853.9 -0.3 79
2019-07-23 19:00:00 23.6 6 Sudoeste 23 Sudeste 0 853.6 -0.7 52
2019-07-23 18:00:00 25.5 9 Sur 26 Sudeste 0 853.8 -0.7 35
2019-07-23 17:00:00 25.8 11 Sur 35 Sur 0 854.2 -0.2 37
2019-07-23 16:00:00 25.1 8 Sur 30 Sur 0 854.3 0.2 36
2019-07-23 15:00:00 23.8 12 Sur 42 Sudoeste 0 854.5 0.5 42
2019-07-23 14:00:00 23.4 13 Sudeste 34 Sur 0 854.4 -0.4 38
2019-07-23 13:00:00 22.5 14 Sur 41 Sur 0 854.1 -1.3 33
2019-07-23 12:00:00 21.4 13 Sudeste 30 Sudeste 0 854 -1.6 43
2019-07-23 11:00:00 19 16 Sudeste 37 Sur 0 854.8 -0.1 57
2019-07-23 10:00:00 20.1 13 Este 44 Sur 0 855.4 0.6 48
2019-07-23 09:00:00 19.8 16 Sudeste 45 Sur 0 855.6 1 44
2019-07-23 08:00:00 20.8 10 Sudoeste 27 Sur 0 854.9 0.2 35
2019-07-23 07:00:00 19.9 8 Sur 26 Sur 0 854.8 -0.2 36
2019-07-23 06:00:00 13.7 3 Sudeste 17 Sudeste 0 854.6 -1.1 72
2019-07-23 05:00:00 15.7 5 Sudeste 15 Sudeste 0 854.7 -1.5 60
2019-07-23 04:00:00 14.6 7 Sudeste 22 Sur 0 855 -1.8 70
2019-07-23 03:00:00 14.7 7 Sudeste 12 Sur 0 855.7 -1.3 71
2019-07-23 02:00:00 14.3 6 Oeste 23 Este 0 856.2 -2.9 76
2019-07-23 01:00:00 14.4 18 Este 27 Este 0 856.8 -1.8 84
2019-07-23 00:00:00 15.8 10 Nordeste 25 Sudoeste 1.6 857 1.1 75
2019-07-22 23:00:00 15.9 14 Este 58 Sur 1.8 859.1 3.3 77
2019-07-22 22:00:00 17.3 14 Sur 67 Sudoeste 2.2 858.6 2.5 63
2019-07-22 21:00:00 24.7 4 Noroeste 17 Sur 0 855.9 -0.4 61
2019-07-22 20:00:00 28.3 7 Sur 19 Sudoeste 0 855.8 -0.9 26
2019-07-22 19:00:00 28.4 6 Sur 24 Sudoeste 0 856.1 -0.8 25
2019-07-22 18:00:00 28.8 9 Sur 29 Sur 0 856.3 -0.7 25
2019-07-22 17:00:00 28.7 6 Sur 29 Sudoeste 0 856.7 -0.6 26
2019-07-22 16:00:00 28.2 11 Sudoeste 36 Sudeste 0 856.9 -0.6 28
2019-07-22 15:00:00 27.9 20 Este 37 Este 0 857 -0.7 32
2019-07-22 14:00:00 27.2 18 Este 37 Este 0 857.3 -0.5 38
2019-07-22 13:00:00 25.9 17 Este 32 Este 0 857.5 -0.1 41
2019-07-22 12:00:00 24.6 15 Este 26 Este 0 857.7 0.3 49
2019-07-22 11:00:00 22.7 9 Este 27 Este 0 857.8 0.5 53
2019-07-22 10:00:00 21 15 Este 21 Este 0 857.6 0.4 58
2019-07-22 09:00:00 17.5 2 Este 10 Sudeste 0 857.4 0.3 73
2019-07-22 08:00:00 14.3 3 Sur 16 Sudeste 0 857.3 0.2 82
2019-07-22 07:00:00 16.3 12 Sudeste 21 Este 0 857.2 -0.1 74
2019-07-22 06:00:00 15 4 Nordeste 9 Este 0 857.1 -0.5 79
2019-07-22 05:00:00 14.7 5 Noroeste 23 Nordeste 0 857.1 -0.9 82
2019-07-22 04:00:00 15 9 Este 24 Este 0 857.3 -0.9 81
2019-07-22 03:00:00 14.4 14 Este 26 Sudeste 0 857.6 -0.9 93
2019-07-22 02:00:00 11.2 3 Oeste 6 Noroeste 0 858 -0.1 94
2019-07-22 01:00:00 11.3 6 Noroeste 16 Oeste 0 858.2 0.6 94
2019-07-22 00:00:00 12.9 13 Oeste 24 Oeste 0 858.5 1 94
2019-07-21 23:00:00 13.2 21 Oeste 26 Oeste 0 858.1 1 94
2019-07-21 22:00:00 13.4 18 Oeste 25 Oeste 0 857.6 0.7 94
2019-07-21 21:00:00 13.9 17 Oeste 30 Oeste 0 857.5 0.3 94
2019-07-21 20:00:00 14.1 23 Oeste 33 Oeste 0 857.1 0 94
2019-07-21 19:00:00 14.3 26 Oeste 32 Oeste 0 856.9 0.1 93
2019-07-21 18:00:00 14.6 23 Oeste 36 Oeste 0 857.2 0.7 93
2019-07-21 17:00:00 16 24 Noroeste 43 Oeste 0 857.1 0.7 87
2019-07-21 16:00:00 18.2 22 Oeste 33 Oeste 0 856.8 0.2 77
2019-07-21 15:00:00 18.6 26 Oeste 35 Oeste 0 856.5 -0.1 75
2019-07-21 14:00:00 22.6 10 Noroeste 23 Oeste 0 856.4 0.1 49
2019-07-21 13:00:00 18 15 Oeste 26 Oeste 0 856.6 0.4 78
2019-07-21 12:00:00 16.7 16 Oeste 23 Oeste 0 856.6 0.8 79
2019-07-21 11:00:00 15 13 Oeste 17 Noroeste 0.2 856.3 0.9 84
2019-07-21 10:00:00 12.7 13 Oeste 18 Noroeste 0 856.2 1.1 94
2019-07-21 09:00:00 10.6 11 Noroeste 16 Noroeste 0 855.8 0.8 94
2019-07-21 08:00:00 9 4 Noroeste 6 Noroeste 0 855.4 0.2 94
2019-07-21 07:00:00 8.3 2 Sur 8 Sudeste 0 855.1 -0.3 94
2019-07-21 06:00:00 8.8 2 Noroeste 12 Sur 0 855 -0.5 94
2019-07-21 05:00:00 8.1 3 Oeste 9 Sur 0 855.2 -0.7 94
2019-07-21 04:00:00 9 2 Norte 7 Noroeste 0 855.4 -0.7 94
2019-07-21 03:00:00 8.7 2 Sudeste 8 Sur 0 855.5 -0.7 94
2019-07-21 02:00:00 9.8 3 Oeste 7 Noroeste 0 855.9 0.1 94
2019-07-21 01:00:00 11.4 6 Oeste 13 Noroeste 0 856.1 0.9 94
2019-07-21 00:00:00 12.2 8 Oeste 15 Oeste 0 856.2 1.4 94
2019-07-20 23:00:00 12.5 10 Oeste 19 Noroeste 0 855.8 1.5 94
2019-07-20 22:00:00 12.7 14 Noroeste 21 Noroeste 0 855.2 1.2 94
2019-07-20 21:00:00 13.1 12 Oeste 22 Oeste 0 854.8 1 94
2019-07-20 20:00:00 13.4 17 Oeste 25 Oeste 0 854.3 0.8 94
2019-07-20 19:00:00 13.9 19 Oeste 33 Oeste 0 854 0.4 94
2019-07-20 18:00:00 14.9 23 Oeste 40 Oeste 0 853.8 0.5 92
2019-07-20 17:00:00 16.3 30 Oeste 37 Oeste 0 853.5 0.5 84
2019-07-20 16:00:00 16.9 24 Oeste 37 Oeste 0 853.6 0.9 81
2019-07-20 15:00:00 18.6 22 Oeste 32 Oeste 0 853.3 0.6 74
2019-07-20 14:00:00 18.5 20 Oeste 32 Oeste 0 853 0.5 71
2019-07-20 13:00:00 19.7 13 Oeste 21 Oeste 0 852.7 0.5 62
2019-07-20 12:00:00 18.5 17 Oeste 28 Oeste 0 852.7 0.9 58
2019-07-20 11:00:00 17.7 19 Oeste 26 Oeste 0 852.5 1 55
2019-07-20 10:00:00 18.6 11 Este 14 Este 0 852.2 0.8 65
2019-07-20 09:00:00 14.7 3 Noroeste 11 Noroeste 0 851.8 0.7 81
2019-07-20 08:00:00 11.7 6 Noroeste 19 Oeste 0 851.5 0.4 92
2019-07-20 07:00:00 11.9 12 Oeste 18 Oeste 0 851.4 0.2 94
2019-07-20 06:00:00 11.4 14 Oeste 23 Oeste 0 851.1 0 94
2019-07-20 05:00:00 11 8 Oeste 15 Oeste 0 851.1 -0.3 93
2019-07-20 04:00:00 12.8 13 Oeste 23 Oeste 0 851.2 -0.4 94
2019-07-20 03:00:00 13.3 10 Oeste 23 Oeste 0 851.1 -0.6 94
2019-07-20 02:00:00 13.1 9 Oeste 19 Oeste 0 851.4 -0.4 93
2019-07-20 01:00:00 13.8 2 Oeste 15 Oeste 0 851.6 0.1 90
2019-07-20 00:00:00 14.8 12 Oeste 18 Oeste 0 851.7 0.3 91
2019-07-19 23:00:00 15.5 12 Oeste 15 Oeste 0 851.8 0.6 90
2019-07-19 22:00:00 16.1 11 Oeste 21 Noroeste 0 851.5 0.3 89
2019-07-19 21:00:00 18 18 Oeste 29 Oeste 0 851.4 0.1 78
2019-07-19 20:00:00 18.8 19 Oeste 29 Oeste 0 851.2 0 74
2019-07-19 19:00:00 19.4 21 Oeste 30 Oeste 0 851.2 -0.5 73
2019-07-19 18:00:00 20.5 24 Oeste 36 Noroeste 0 851.3 -0.6 71
2019-07-19 17:00:00 22.9 22 Oeste 35 Oeste 0 851.2 -1.1 62
2019-07-19 16:00:00 25 8 Oeste 32 Sudeste 0 851.7 -0.7 31
2019-07-19 15:00:00 24.2 18 Noroeste 38 Noroeste 0 851.9 -0.6 33
2019-07-19 14:00:00 23.5 10 Sudoeste 38 Sudoeste 0 852.3 -0.2 32
2019-07-19 13:00:00 22.9 11 Sur 26 Sur 0 852.4 -0.5 35
2019-07-19 12:00:00 21.8 12 Sudeste 30 Sudeste 0 852.5 -0.3 43
2019-07-19 11:00:00 20.4 18 Este 33 Nordeste 0 852.5 -0.3 45
2019-07-19 10:00:00 19 16 Este 23 Este 0 852.9 0 49
2019-07-19 09:00:00 15.4 7 Este 12 Este 0 852.8 -0.2 58
2019-07-19 08:00:00 9.5 3 Sudoeste 8 Oeste 0 852.8 -0.5 72
2019-07-19 07:00:00 7.3 2 Sudeste 5 Oeste 0 852.9 -0.6 74
2019-07-19 06:00:00 7.1 0 Calma 7 Oeste 0 853 -0.8 69
2019-07-19 05:00:00 7.3 4 Oeste 9 Oeste 0 853.3 -0.8 65
2019-07-19 04:00:00 8.1 6 Oeste 11 Noroeste 0 853.5 -0.7 63
2019-07-19 03:00:00 8.6 5 Oeste 13 Noroeste 0 853.8 -0.3 67
2019-07-19 02:00:00 9.9 8 Oeste 12 Noroeste 0 854.1 0 69
2019-07-19 01:00:00 11.3 5 Oeste 15 Oeste 0 854.2 0.3 79
2019-07-19 00:00:00 11 11 Oeste 22 Oeste 0 854.1 0.3 92
2019-07-18 23:00:00 12.4 15 Oeste 22 Noroeste 0 854.1 0.4 93
2019-07-18 22:00:00 12.8 17 Noroeste 22 Noroeste 0 853.9 0.2 90
2019-07-18 21:00:00 16 17 Noroeste 27 Oeste 0 853.8 0 69
2019-07-18 20:00:00 17.7 20 Oeste 33 Oeste 0 853.7 -0.2 59
2019-07-18 19:00:00 18 21 Oeste 33 Noroeste 0 853.7 -0.2 59
2019-07-18 18:00:00 18.3 24 Oeste 35 Oeste 0 853.8 -0.2 58
2019-07-18 17:00:00 18.7 24 Oeste 37 Oeste 0 853.9 -0.1 53
2019-07-18 16:00:00 18.6 25 Oeste 35 Oeste 0 853.9 0 48
2019-07-18 15:00:00 18.1 27 Oeste 35 Noroeste 0 854 0.2 39
2019-07-18 14:00:00 17.8 24 Oeste 34 Oeste 0 854 0.5 26
2019-07-18 13:00:00 17.3 23 Oeste 31 Oeste 0 853.9 0.4 29
2019-07-18 12:00:00 16.8 20 Noroeste 28 Noroeste 0 853.8 0.7 33
2019-07-18 11:00:00 15.5 18 Oeste 26 Oeste 0 853.5 0.4 34
2019-07-18 10:00:00 14.4 20 Oeste 26 Oeste 0 853.5 0.5 27
2019-07-18 09:00:00 13.1 8 Noroeste 14 Oeste 0 853.1 0.2 37
2019-07-18 08:00:00 8.2 10 Noroeste 15 Oeste 0 853.1 0 50
2019-07-18 07:00:00 7.2 12 Noroeste 17 Oeste 0 853 -0.4 47
2019-07-18 06:00:00 5.7 7 Noroeste 14 Noroeste 0 852.9 -0.7 61
2019-07-18 05:00:00 5.5 9 Noroeste 15 Noroeste 0 853.1 -0.6 65
2019-07-18 04:00:00 4.3 8 Oeste 19 Noroeste 0 853.4 -0.3 77
2019-07-18 03:00:00 6 13 Noroeste 20 Oeste 0 853.6 -0.4 93
2019-07-18 02:00:00 8.4 15 Oeste 22 Oeste 0 853.7 -0.1 94
2019-07-18 01:00:00 7.3 14 Oeste 22 Oeste 0 853.7 0.1 93
2019-07-18 00:00:00 9.6 14 Oeste 26 Oeste 0 854 0.6 94